Weather at Wooloomanata Airfield

Public forecast

Using degrees Celsius for public forecast. Weather courtesy of forecast.io.

Closest aviation weather report (METAR) to Wooloomanata Airfield

Report is more than 2 hours old.

Closest report is Avalon Airport, 7.8 nm (14.4 km) SE.

2024/06/24 21:00 (retrieved 5 hours ago)

YMAV 242100Z AUTO 01014KT 9999 // NCD 09/05 Q1014 RF000/0000

Closest aviation forecast (TAF) to Wooloomanata Airfield

Forecast is more than 6 hours old.

Closest forecast is Avalon Airport, 7.8 nm (14.4 km) SE.

2024/06/24 18:36 (retrieved 8 hours ago)

TAF TAF YMAV 241732Z 2418/2518 01014KT CAVOK FM250900 04008KT 9999 SCT040 FM251500 02010KT 9999 -SHRA SCT045